Aérodrome :
LOGIN :

S'inscrire | Disclaimer

   EN    FR    IT 

 










Légende :    VFR   VFR Marginal   IFR   IFR Intensif   IFR Très Intensif
Visi : 
Plafond : 
>= 8 km
>= 3000ft
5 à 8 km
1000 à 3000 ft
1500m à 5 km
500 à 1000 ft
800 à 1500m
200 à 500 ft
< 800m
< 200 ft
Symboles :   Orages  Brouillard  Fortes neiges  Fortes précipitations  Vent > 20 kt
SIGMETs :   Divers  Orages  Givrage  Turbulence  Onde Orograph.  Cendres Volcan.






- Altitude de l'aérodrome : 538 ft
- Code IATA : TNF


LFPN - Toussus Le Noble

DERNIER METAR :
  • 101100Z AUTO 07004KT 030V190 CAVOK 32/14 Q1014 TEMPO SCT060CB

METARs EXPIRÉS :
  • 101030Z AUTO VRB03KT CAVOK 32/14 Q1014 TEMPO SCT060CB
  • 101000Z AUTO VRB03KT CAVOK 31/14 Q1014 TEMPO SCT060CB
  • 100930Z AUTO VRB03KT CAVOK 31/15 Q1014 TEMPO SCT060CB
  • 100900Z AUTO 26004KT 220V300 CAVOK 31/15 Q1014 TEMPO SCT060CB
  • 100830Z AUTO 25003KT 180V310 CAVOK 29/16 Q1014 TEMPO SCT060CB

TAF TAF LFPN
Valide du 10 à 09h jusqu'au 10 à 18h UTC


100800Z 1009/1018 VRB04KT CAVOK
TEMPO 1010/1013 SCT060CB
TEMPO 1013/1018 -SHRA SCT080CB
PROB40
TEMPO 1015/1018 3000 TSRA
ATIS : +33 1 39 56 54 70



MET'MAP, la Météo Aéronautique d'un coup d'oeil ! - Copyright ORBIFLY Décembre 2007 - Disclaimer

ORBIFLY MET'MAP TEAM :

Programmation & Développement : Alexandra Zaïnal
Sur une idée originale de : Baudouin d'Aumeries
Assistance à la programmation : Marc-Olivier Méhu
Soutien technique & logistique : Manuel Goepfert

Contact : metmap@orbifly.com




SOURCES & CREDITS :

   NOAA